Time;durP1;ratioP1;P1;durP2;ratioP2;P2;SDS_P1;SDS_P2;PMS_P1;PMS_P2;Temp;Humidity;BMP_temperature;BMP_pressure;BME280_temperature;BME280_humidity;BME280_pressure;Samples;Min_cycle;Max_cycle;Signal;HPM_P1;HPM_P2
2022/02/07 00:01:50;;;;;;;158.88;98.15;;;205.00;2252.80;;;;;;4989388;28;20031;-57
2022/02/07 00:04:21;;;;;;;161.18;96.28;;;204.90;2252.80;;;;;;4990675;28;20022;-56
2022/02/07 00:06:46;;;;;;;164.93;105.65;;;204.80;2252.80;;;;;;4990794;28;20117;-57
2022/02/07 00:09:12;;;;;;;151.93;89.47;;;204.80;2252.80;;;;;;4990704;28;20117;-63
2022/02/07 00:11:38;;;;;;;53.47;33.78;;;205.00;2252.80;;;;;;4990591;28;20037;-59
2022/02/07 00:14:04;;;;;;;64.22;37.58;;;205.10;2252.80;;;;;;4990926;28;20022;-58
2022/02/07 00:16:32;;;;;;;52.60;32.38;;;205.10;2252.80;;;;;;4990310;28;20533;-59
2022/02/07 00:18:57;;;;;;;31.55;19.35;;;205.20;2252.80;;;;;;4990330;28;20121;-58
2022/02/07 00:21:23;;;;;;;68.57;43.00;;;205.30;2252.80;;;;;;4990855;28;20113;-59
2022/02/07 00:23:49;;;;;;;50.13;31.60;;;205.50;2252.80;;;;;;4990501;28;20073;-60
2022/02/07 00:26:14;;;;;;;74.47;44.58;;;205.50;2252.80;;;;;;4990362;28;20110;-58
2022/02/07 00:28:40;;;;;;;39.03;22.90;;;205.50;2252.80;;;;;;4989003;28;20141;-59
2022/02/07 00:31:06;;;;;;;40.92;23.55;;;205.30;2252.80;;;;;;4989282;28;20049;-59
2022/02/07 00:33:32;;;;;;;34.97;20.42;;;205.20;2252.80;;;;;;4990320;28;20030;-58
2022/02/07 00:35:57;;;;;;;23.52;14.32;;;205.30;2252.80;;;;;;4990572;28;20105;-59
2022/02/07 00:38:25;;;;;;;74.30;39.05;;;205.10;2252.80;;;;;;4990243;28;20085;-58
2022/02/07 00:45:52;;;;;;;76.20;47.55;;;205.40;2252.80;;;;;;4990294;28;20113;-59
2022/02/07 00:48:22;;;;;;;66.45;38.97;;;205.50;2252.80;;;;;;4990064;28;20026;-59
2022/02/07 00:50:49;;;;;;;80.38;44.35;;;205.60;2252.80;;;;;;4987836;28;20144;-58
2022/02/07 00:53:15;;;;;;;37.55;21.20;;;205.70;2252.80;;;;;;4990731;28;20393;-57
2022/02/07 00:55:41;;;;;;;14.45;9.10;;;205.70;2252.80;;;;;;4990518;28;20030;-59
2022/02/07 00:58:07;;;;;;;32.08;20.48;;;230.40;2252.80;;;;;;4990044;28;20030;-59
2022/02/07 01:00:33;;;;;;;32.95;21.20;;;230.40;2252.80;;;;;;4990682;28;20049;-59
2022/02/07 01:02:59;;;;;;;65.75;37.85;;;230.40;2252.80;;;;;;4990612;28;20018;-58
2022/02/07 01:05:26;;;;;;;94.82;58.08;;;230.40;2252.80;;;;;;4990760;28;20388;-57
2022/02/07 01:07:52;;;;;;;68.65;45.28;;;205.20;2252.80;;;;;;4990635;28;20033;-59
2022/02/07 01:10:25;;;;;;;69.97;41.50;;;204.90;2252.80;;;;;;4990712;28;20436;-58
2022/02/07 01:21:23;;;;;;;108.95;66.22;;;205.20;2252.80;;;;;;4990799;28;20040;-58
2022/02/07 01:50:56;;;;;;;109.88;67.50;;;205.30;2252.80;;;;;;4990520;28;20109;-58
2022/02/07 01:56:16;;;;;;;150.15;90.10;;;205.10;2252.80;;;;;;4987737;28;20142;-59
2022/02/07 01:58:42;;;;;;;89.38;56.13;;;205.00;2252.80;;;;;;4987933;28;20155;-59
2022/02/07 02:01:08;;;;;;;86.32;53.95;;;205.00;2252.80;;;;;;4987979;28;20042;-60
2022/02/07 02:03:34;;;;;;;41.20;25.85;;;205.10;2252.80;;;;;;4988190;28;20041;-60
2022/02/07 02:06:02;;;;;;;23.20;12.88;;;205.20;2252.80;;;;;;4987933;28;20504;-58
2022/02/07 02:08:28;;;;;;;16.67;9.75;;;205.60;2252.80;;;;;;4988690;28;20358;-59
2022/02/07 02:10:57;;;;;;;13.40;9.40;;;230.60;2252.80;;;;;;4991588;28;20100;-59
2022/02/07 02:13:28;;;;;;;14.98;9.07;;;230.80;2252.80;;;;;;4991531;28;20539;-58
2022/02/07 02:16:12;;;;;;;35.47;23.75;;;231.00;2176.00;;;;;;4991507;28;20569;-58
2022/02/07 02:32:56;;;;;;;15.57;10.18;;;256.20;2124.80;;;;;;4992032;28;20452;-58
2022/02/07 02:38:10;;;;;;;31.45;17.15;;;256.50;2048.00;;;;;;4993089;28;20081;-60
2022/02/07 02:46:05;;;;;;;133.18;84.15;;;230.70;2252.80;;;;;;4993273;28;20032;-58
2022/02/07 02:48:34;;;;;;;133.35;83.38;;;205.10;2252.80;;;;;;4992738;28;20022;-59
2022/02/07 02:51:07;;;;;;;138.70;87.72;;;205.10;2252.80;;;;;;4992954;28;20038;-60
2022/02/07 02:53:32;;;;;;;182.20;107.93;;;205.20;2252.80;;;;;;4993023;28;20026;-59
2022/02/07 02:55:58;;;;;;;168.10;106.18;;;205.20;2252.80;;;;;;4992809;28;20539;-59
2022/02/07 02:58:24;;;;;;;134.98;84.82;;;205.30;2252.80;;;;;;4992354;28;20034;-59
2022/02/07 03:00:52;;;;;;;132.18;80.45;;;205.20;2252.80;;;;;;4992684;28;20391;-59
2022/02/07 03:03:18;;;;;;;132.35;81.30;;;205.10;2252.80;;;;;;4992516;28;20038;-60
2022/02/07 03:05:46;;;;;;;123.55;82.72;;;205.20;2252.80;;;;;;4993037;28;20030;-58
2022/02/07 03:08:13;;;;;;;123.28;77.97;;;205.20;2252.80;;;;;;4992761;28;20030;-58
2022/02/07 03:11:04;;;;;;;119.10;74.95;;;205.20;2252.80;;;;;;4992491;28;20394;-58
2022/02/07 03:18:36;;;;;;;137.48;96.45;;;205.00;2252.80;;;;;;4992677;28;20535;-58
2022/02/07 03:21:02;;;;;;;116.25;77.85;;;205.00;2252.80;;;;;;4991460;28;20030;-58
2022/02/07 03:23:28;;;;;;;124.60;74.63;;;205.10;2252.80;;;;;;4992306;28;20465;-58
2022/02/07 03:25:54;;;;;;;110.85;67.28;;;205.10;2252.80;;;;;;4992287;28;20041;-58
2022/02/07 03:28:24;;;;;;;124.07;75.60;;;205.20;2252.80;;;;;;4991775;28;20050;-58
2022/02/07 03:30:50;;;;;;;100.72;62.45;;;205.20;2252.80;;;;;;4992246;28;20038;-58
2022/02/07 03:33:17;;;;;;;108.53;67.10;;;205.10;2252.80;;;;;;4992425;28;20054;-59
2022/02/07 03:35:43;;;;;;;183.82;118.38;;;205.30;2252.80;;;;;;4992136;28;20473;-59
2022/02/07 03:38:09;;;;;;;109.72;68.15;;;205.30;2252.80;;;;;;4991808;28;20026;-59
2022/02/07 03:40:36;;;;;;;86.43;55.95;;;205.40;2252.80;;;;;;4991996;28;20503;-59
2022/02/07 03:43:02;;;;;;;83.78;53.45;;;205.60;2252.80;;;;;;4991930;28;20027;-59
2022/02/07 03:45:28;;;;;;;170.57;101.50;;;205.60;2252.80;;;;;;4991633;28;20108;-59
2022/02/07 03:47:54;;;;;;;115.10;67.95;;;205.60;2252.80;;;;;;4992009;28;20472;-58
2022/02/07 03:50:20;;;;;;;74.90;47.88;;;205.60;2252.80;;;;;;4991631;28;20030;-58
2022/02/07 03:52:46;;;;;;;71.70;43.47;;;205.60;2252.80;;;;;;4991955;28;20085;-58
2022/02/07 03:55:12;;;;;;;61.40;36.13;;;205.70;2252.80;;;;;;4991805;28;20121;-58
2022/02/07 03:57:38;;;;;;;58.10;36.88;;;205.70;2252.80;;;;;;4991471;28;20077;-61
2022/02/07 04:00:07;;;;;;;63.25;40.55;;;205.70;2252.80;;;;;;4991581;28;20137;-58
2022/02/07 04:02:38;;;;;;;58.67;38.70;;;230.40;2252.80;;;;;;4990338;28;20389;-58
2022/02/07 04:05:34;;;;;;;73.53;46.05;;;230.40;2252.80;;;;;;4991523;28;20456;-59
2022/02/07 04:07:51;;;;;;;91.97;55.47;;;205.70;2252.80;;;;;;4991316;28;20026;-59
2022/02/07 04:10:18;;;;;;;112.55;66.55;;;230.40;2252.80;;;;;;4991309;28;20046;-59
2022/02/07 04:12:50;;;;;;;89.93;54.00;;;230.50;2252.80;;;;;;4991469;28;20045;-59
2022/02/07 04:15:18;;;;;;;70.28;40.30;;;230.60;2252.80;;;;;;4991597;28;20053;-58
2022/02/07 04:17:50;;;;;;;34.15;22.52;;;230.70;2252.80;;;;;;4991314;28;20041;-59
2022/02/07 04:20:17;;;;;;;45.60;26.85;;;230.90;2252.80;;;;;;4991367;28;20030;-60
2022/02/07 04:22:43;;;;;;;41.13;25.42;;;230.90;2252.80;;;;;;4991352;28;20022;-59
2022/02/07 04:25:09;;;;;;;31.77;17.40;;;231.00;2252.80;;;;;;4991105;28;20026;-59
2022/02/07 04:27:35;;;;;;;21.13;13.73;;;230.90;2252.80;;;;;;4991033;28;20146;-59
2022/02/07 04:30:03;;;;;;;21.50;13.45;;;230.90;2252.80;;;;;;4991086;28;20047;-59
2022/02/07 04:32:29;;;;;;;48.55;30.52;;;231.00;2252.80;;;;;;4990753;28;20527;-59
2022/02/07 04:34:55;;;;;;;17.23;10.02;;;230.90;2252.80;;;;;;4991186;28;20062;-59
2022/02/07 04:37:20;;;;;;;43.05;26.92;;;231.10;2252.80;;;;;;4991181;28;20026;-59
2022/02/07 04:39:46;;;;;;;51.08;28.27;;;231.20;2252.80;;;;;;4990676;28;20126;-60
2022/02/07 04:42:13;;;;;;;27.90;18.10;;;231.20;2252.80;;;;;;4990876;28;20022;-60
2022/02/07 04:44:50;;;;;;;14.70;9.85;;;231.20;2252.80;;;;;;4990609;28;20053;-59
2022/02/07 04:47:36;;;;;;;32.15;17.52;;;231.20;2252.80;;;;;;4990670;28;20024;-61
2022/02/07 05:01:28;;;;;;;27.77;13.02;;;231.20;2252.80;;;;;;4988903;28;20049;-59
2022/02/07 05:04:03;;;;;;;38.08;24.25;;;256.20;2252.80;;;;;;4988584;28;20038;-59
2022/02/07 05:15:02;;;;;;;26.70;16.05;;;256.30;2252.80;;;;;;4988960;28;19912;-58
2022/02/07 05:17:30;;;;;;;42.80;25.45;;;256.20;2252.80;;;;;;4988471;28;20027;-58
2022/02/07 05:19:56;;;;;;;42.28;26.50;;;256.20;2252.80;;;;;;4988489;28;20034;-59
2022/02/07 05:22:22;;;;;;;26.60;16.88;;;256.40;2252.80;;;;;;4988635;28;20515;-58
2022/02/07 05:24:47;;;;;;;12.30;7.05;;;256.60;2252.80;;;;;;4971819;28;20042;-58
2022/02/07 05:27:13;;;;;;;18.83;9.18;;;256.90;2176.00;;;;;;4988117;28;20049;-58
2022/02/07 05:29:39;;;;;;;16.98;8.65;;;256.90;2201.60;;;;;;4988232;28;20064;-58
2022/02/07 05:32:05;;;;;;;12.85;8.27;;;256.90;2227.20;;;;;;4988475;28;20093;-58
2022/02/07 05:34:31;;;;;;;13.88;8.38;;;256.90;2176.00;;;;;;4955863;28;20387;-59
2022/02/07 05:36:58;;;;;;;12.75;7.45;;;256.90;2227.20;;;;;;4949400;29;20038;-59
2022/02/07 05:39:26;;;;;;;10.18;5.65;;;281.70;2201.60;;;;;;4954550;28;20043;-59
2022/02/07 05:41:52;;;;;;;12.88;6.85;;;281.80;2150.40;;;;;;4990572;28;20143;-58
2022/02/07 05:44:18;;;;;;;52.67;27.80;;;281.90;2150.40;;;;;;4991880;28;20576;-58
2022/02/07 05:46:44;;;;;;;19.10;12.52;;;281.90;2150.40;;;;;;4994034;28;20034;-58
2022/02/07 05:49:09;;;;;;;7.20;3.35;;;282.00;2124.80;;;;;;4993918;28;20030;-58
2022/02/07 05:51:35;;;;;;;130.52;82.60;;;282.20;2048.00;;;;;;4994091;28;20121;-59
2022/02/07 05:54:01;;;;;;;91.78;56.35;;;282.30;2099.20;;;;;;4993952;28;20023;-58
2022/02/07 05:56:27;;;;;;;35.80;24.17;;;282.00;2099.20;;;;;;4993633;28;20106;-59
2022/02/07 05:58:52;;;;;;;11.50;6.18;;;282.10;2073.60;;;;;;4993922;28;20038;-58
2022/02/07 06:01:18;;;;;;;5.85;3.72;;;282.40;2048.00;;;;;;4993693;28;20026;-58
2022/02/07 06:03:44;;;;;;;7.15;3.75;;;307.30;2022.40;;;;;;4993677;28;20048;-59
2022/02/07 06:06:09;;;;;;;14.35;9.95;;;307.40;2022.40;;;;;;4993410;28;20038;-59
2022/02/07 06:08:35;;;;;;;33.15;21.38;;;307.40;1996.80;;;;;;4994027;28;20040;-58
2022/02/07 06:11:02;;;;;;;27.13;16.70;;;307.40;2022.40;;;;;;4993849;28;20425;-59
2022/02/07 06:13:27;;;;;;;29.85;7.57;;;307.40;1996.80;;;;;;4993724;28;20073;-59
2022/02/07 06:15:54;;;;;;;14.88;10.75;;;307.50;1971.20;;;;;;4993782;28;20034;-59
2022/02/07 06:18:20;;;;;;;17.42;10.98;;;307.60;1971.20;;;;;;4993375;28;20026;-59
2022/02/07 06:20:48;;;;;;;8.32;5.93;;;307.60;1971.20;;;;;;4993173;28;20366;-59
2022/02/07 06:23:15;;;;;;;7.65;4.93;;;307.60;1945.60;;;;;;4993483;28;20113;-58
2022/02/07 06:25:40;;;;;;;9.30;4.32;;;307.70;1945.60;;;;;;4993290;28;20022;-58
2022/02/07 06:28:06;;;;;;;5.90;3.80;;;307.80;1920.00;;;;;;4993111;28;20050;-59
2022/02/07 06:30:32;;;;;;;5.82;3.50;;;307.80;1920.00;;;;;;4993431;28;20030;-59
2022/02/07 06:32:58;;;;;;;6.03;3.97;;;307.80;1945.60;;;;;;4993337;28;20388;-58
2022/02/07 06:35:23;;;;;;;14.80;8.93;;;307.90;1920.00;;;;;;4993406;28;20032;-56
2022/02/07 06:37:51;;;;;;;33.20;19.08;;;308.00;1920.00;;;;;;4993027;28;20525;-58
2022/02/07 06:40:17;;;;;;;36.30;23.00;;;308.00;1945.60;;;;;;4993013;28;20400;-59
2022/02/07 06:42:43;;;;;;;14.88;9.70;;;308.00;1945.60;;;;;;4993184;28;20080;-58
2022/02/07 06:45:09;;;;;;;11.95;7.05;;;308.10;1920.00;;;;;;4992727;28;20030;-58
2022/02/07 06:47:35;;;;;;;8.05;3.38;;;308.10;1894.40;;;;;;4992987;28;20030;-58
2022/02/07 06:50:01;;;;;;;14.15;11.95;;;332.90;1920.00;;;;;;4992390;28;20469;-58
2022/02/07 06:52:27;;;;;;;7.78;5.00;;;332.90;1920.00;;;;;;4991383;28;20026;-59
2022/02/07 06:54:53;;;;;;;15.32;10.88;;;332.90;1920.00;;;;;;4991569;28;20524;-57
2022/02/07 06:57:21;;;;;;;24.35;17.75;;;333.00;1894.40;;;;;;4991738;28;20482;-57
2022/02/07 06:59:48;;;;;;;4.03;2.35;;;333.00;1894.40;;;;;;4991669;28;20062;-60
2022/02/07 07:02:14;;;;;;;27.38;24.50;;;333.10;1868.80;;;;;;4992258;28;20022;-61
2022/02/07 07:04:40;;;;;;;12.95;9.50;;;333.10;1868.80;;;;;;4991384;28;20032;-61
2022/02/07 07:07:06;;;;;;;35.80;32.50;;;333.20;1868.80;;;;;;4991176;28;20068;-60
2022/02/07 07:09:33;;;;;;;29.98;20.67;;;333.20;1868.80;;;;;;4990788;28;20023;-58
2022/02/07 07:12:07;;;;;;;11.15;7.97;;;333.20;1868.80;;;;;;4991064;28;20026;-62
2022/02/07 07:17:11;;;;;;;38.78;21.58;;;333.30;1868.80;;;;;;4989577;28;20030;-59
2022/02/07 07:19:37;;;;;;;10.07;7.80;;;333.30;1868.80;;;;;;4990379;28;20057;-59
2022/02/07 07:22:05;;;;;;;25.80;14.65;;;333.30;1868.80;;;;;;4991122;28;20465;-58
2022/02/07 07:24:31;;;;;;;12.00;8.15;;;333.30;1868.80;;;;;;4991722;28;20031;-60
2022/02/07 07:26:57;;;;;;;6.97;5.25;;;333.30;1868.80;;;;;;4991891;28;20113;-62
2022/02/07 07:29:31;;;;;;;11.35;9.45;;;333.30;1894.40;;;;;;4992154;28;20126;-61
2022/02/07 07:32:02;;;;;;;143.68;78.28;;;333.30;1920.00;;;;;;4992014;28;20168;-61
2022/02/07 07:34:29;;;;;;;171.88;96.43;;;333.30;1920.00;;;;;;4991921;28;20034;-60
2022/02/07 07:36:55;;;;;;;152.38;87.13;;;333.20;1945.60;;;;;;4992183;28;20022;-58
2022/02/07 07:39:21;;;;;;;148.95;87.82;;;333.20;1945.60;;;;;;4991682;28;20045;-59
2022/02/07 07:41:47;;;;;;;113.50;66.93;;;333.10;1971.20;;;;;;4991832;28;20029;-60
2022/02/07 07:44:15;;;;;;;38.58;25.45;;;333.10;1996.80;;;;;;4991933;28;20038;-59
2022/02/07 07:46:41;;;;;;;7.70;5.47;;;333.20;1996.80;;;;;;4991665;28;20030;-60
2022/02/07 07:51:45;;;;;;;9.27;7.28;;;333.10;1996.80;;;;;;4991757;28;20377;-62
2022/02/07 08:02:16;;;;;;;10.65;8.23;;;333.20;1996.80;;;;;;4991441;28;20033;-61
2022/02/07 08:04:44;;;;;;;9.77;7.85;;;333.20;1996.80;;;;;;4991388;28;20034;-61
2022/02/07 08:12:13;;;;;;;23.13;10.27;;;333.30;1971.20;;;;;;4991337;28;20023;-59
2022/02/07 08:14:39;;;;;;;27.75;17.55;;;333.40;1971.20;;;;;;4991370;28;20190;-59
2022/02/07 08:17:06;;;;;;;29.40;17.73;;;333.30;1971.20;;;;;;4991242;28;20033;-59
2022/02/07 08:19:33;;;;;;;172.38;107.38;;;333.40;1996.80;;;;;;4991286;28;20030;-60
2022/02/07 08:22:00;;;;;;;22.27;14.50;;;333.50;1971.20;;;;;;4991340;28;20433;-59
2022/02/07 08:24:26;;;;;;;28.58;17.73;;;333.40;1971.20;;;;;;4991421;28;20026;-59
2022/02/07 08:26:55;;;;;;;27.17;18.52;;;333.50;1945.60;;;;;;4990597;28;20026;-57
2022/02/07 08:29:21;;;;;;;17.00;12.00;;;333.50;1945.60;;;;;;4989566;28;20046;-62
2022/02/07 08:31:47;;;;;;;15.35;11.10;;;333.50;1945.60;;;;;;4989215;28;20085;-60
2022/02/07 08:34:13;;;;;;;9.52;6.65;;;333.50;1945.60;;;;;;4991048;28;20481;-59
2022/02/07 08:36:39;;;;;;;245.77;150.68;;;333.60;1920.00;;;;;;4990936;28;20117;-58
2022/02/07 08:39:05;;;;;;;108.50;67.32;;;333.60;1920.00;;;;;;4990789;28;20034;-58
2022/02/07 08:41:31;;;;;;;124.47;78.38;;;333.70;1920.00;;;;;;4990606;28;20396;-59
2022/02/07 08:43:57;;;;;;;36.63;26.27;;;333.70;1894.40;;;;;;4990842;28;20019;-60
2022/02/07 08:46:23;;;;;;;54.28;37.65;;;333.70;1894.40;;;;;;4990943;28;20088;-58
2022/02/07 08:48:49;;;;;;;16.38;10.90;;;333.70;1894.40;;;;;;4990747;28;20028;-59
2022/02/07 08:51:16;;;;;;;6.60;5.45;;;333.70;1920.00;;;;;;4990824;28;20049;-59
2022/02/07 08:53:44;;;;;;;7.63;5.93;;;358.40;1894.40;;;;;;4990760;28;20045;-59
2022/02/07 08:56:11;;;;;;;6.85;4.93;;;358.50;1894.40;;;;;;4990540;28;20058;-60
2022/02/07 08:58:42;;;;;;;20.10;15.02;;;358.50;1868.80;;;;;;4990643;28;20049;-60
2022/02/07 09:01:26;;;;;;;13.55;8.57;;;358.80;1868.80;;;;;;4990827;28;20037;-59
2022/02/07 09:11:16;;;;;;;68.13;55.75;;;358.80;1817.60;;;;;;4990650;28;20385;-60
2022/02/07 09:13:45;;;;;;;14.40;13.02;;;358.80;1817.60;;;;;;4990745;28;20536;-59
2022/02/07 09:16:31;;;;;;;43.50;32.47;;;358.80;1817.60;;;;;;4990569;28;20026;-60
2022/02/07 09:19:00;;;;;;;20.65;15.73;;;358.80;1843.20;;;;;;4993435;28;20034;-59
2022/02/07 09:21:28;;;;;;;12.13;8.50;;;358.90;1792.00;;;;;;4994736;28;20018;-60
2022/02/07 09:23:57;;;;;;;16.33;10.73;;;358.90;1817.60;;;;;;4994651;28;20399;-59
2022/02/07 09:26:24;;;;;;;29.90;21.65;;;358.90;1792.00;;;;;;4994452;28;20465;-60
2022/02/07 09:28:50;;;;;;;15.52;11.57;;;359.00;1792.00;;;;;;4994180;28;20637;-59
2022/02/07 09:31:16;;;;;;;15.68;10.60;;;359.00;1792.00;;;;;;4994468;28;20027;-59
2022/02/07 09:33:44;;;;;;;10.77;5.88;;;359.10;1792.00;;;;;;4994437;28;20027;-59
2022/02/07 09:36:12;;;;;;;7.65;5.10;;;359.20;1766.40;;;;;;4992947;28;20435;-60
2022/02/07 09:38:38;;;;;;;12.02;7.47;;;359.30;1766.40;;;;;;4994142;28;21906;-59
2022/02/07 09:41:04;;;;;;;10.38;7.35;;;359.30;1792.00;;;;;;4994380;28;20417;-59
2022/02/07 09:43:32;;;;;;;9.27;5.40;;;359.30;1792.00;;;;;;4994209;28;20085;-60
2022/02/07 09:46:06;;;;;;;12.25;7.80;;;359.20;1817.60;;;;;;4993897;28;20037;-59
2022/02/07 09:48:38;;;;;;;8.68;3.97;;;359.00;1817.60;;;;;;4993102;28;20026;-59
2022/02/07 09:51:05;;;;;;;18.48;11.80;;;359.00;1817.60;;;;;;4991967;28;20507;-59
2022/02/07 09:53:32;;;;;;;24.73;16.73;;;358.80;1843.20;;;;;;4992422;28;20112;-59
2022/02/07 09:56:02;;;;;;;15.75;8.00;;;358.80;1868.80;;;;;;4992159;28;20027;-59
2022/02/07 09:58:32;;;;;;;6.60;5.25;;;358.70;1868.80;;;;;;4991976;28;20038;-60
2022/02/07 10:01:00;;;;;;;10.00;4.25;;;358.70;1868.80;;;;;;4992127;28;20039;-58
2022/02/07 10:03:34;;;;;;;13.75;8.60;;;358.50;1868.80;;;;;;4993486;28;20377;-61
2022/02/07 10:06:08;;;;;;;;;;;358.50;1920.00;;;;;;4994332;28;20035;-60
2022/02/07 10:13:49;;;;;;;5.20;3.42;;;333.70;2022.40;;;;;;4993519;28;20064;-60
2022/02/07 10:19:15;;;;;;;12.70;8.55;;;333.70;2073.60;;;;;;4993910;28;20058;-59
2022/02/07 13:00:37;;;;;;;2.83;1.73;;;154.20;2252.80;;;;;;4942313;23;20105;-58
2022/02/07 13:03:05;;;;;;;3.30;1.95;;;153.90;2252.80;;;;;;4971604;28;20066;-59
2022/02/07 13:05:30;;;;;;;6.03;4.13;;;153.90;2252.80;;;;;;4971726;28;20431;-58
2022/02/07 13:08:00;;;;;;;6.05;3.72;;;154.00;2252.80;;;;;;4970339;28;20042;-58
2022/02/07 13:10:33;;;;;;;2.97;1.90;;;154.20;2252.80;;;;;;4969703;28;20027;-59
2022/02/07 13:15:34;;;;;;;5.30;3.17;;;154.00;2252.80;;;;;;4969859;28;20044;-58
2022/02/07 13:18:05;;;;;;;3.17;1.85;;;153.90;2252.80;;;;;;4970033;28;20048;-58
2022/02/07 13:20:32;;;;;;;4.45;2.60;;;153.80;2252.80;;;;;;4969787;28;20129;-59
2022/02/07 13:23:14;;;;;;;4.88;3.28;;;154.10;2252.80;;;;;;4969293;28;20122;-60
2022/02/07 13:25:47;;;;;;;2.47;1.35;;;154.10;2252.80;;;;;;4969780;28;20469;-59
2022/02/07 13:28:19;;;;;;;3.77;2.00;;;154.00;2252.80;;;;;;4969670;28;20023;-58
2022/02/07 13:30:54;;;;;;;4.45;1.65;;;154.20;2252.80;;;;;;4969662;28;20272;-58
2022/02/07 13:33:21;;;;;;;3.47;1.92;;;154.10;2252.80;;;;;;4970182;28;20030;-64
2022/02/07 13:35:49;;;;;;;2.60;1.65;;;154.10;2252.80;;;;;;4969091;28;20141;-58
2022/02/07 13:38:19;;;;;;;3.58;2.03;;;154.10;2252.80;;;;;;4969709;28;20553;-58
2022/02/07 13:40:50;;;;;;;3.53;1.80;;;154.20;2252.80;;;;;;4969389;28;20061;-58
2022/02/07 13:43:19;;;;;;;4.60;2.75;;;154.10;2252.80;;;;;;4969677;28;20035;-57
2022/02/07 13:46:02;;;;;;;2.78;1.52;;;154.20;2252.80;;;;;;4952127;28;20129;-59
2022/02/07 13:48:29;;;;;;;3.10;1.45;;;154.20;2252.80;;;;;;4968960;28;20359;-61
2022/02/07 13:50:57;;;;;;;2.45;1.45;;;154.30;2252.80;;;;;;4969803;28;20039;-59
2022/02/07 13:53:25;;;;;;;2.10;1.30;;;154.30;2252.80;;;;;;4969876;28;20053;-60
2022/02/07 13:55:52;;;;;;;4.00;2.00;;;154.30;2252.80;;;;;;4970378;28;20081;-59
2022/02/07 13:58:18;;;;;;;2.65;1.58;;;154.40;2252.80;;;;;;4970996;28;20385;-61
2022/02/07 14:00:47;;;;;;;3.15;1.83;;;154.20;2252.80;;;;;;4970668;28;20058;-60
2022/02/07 14:03:34;;;;;;;14.57;11.23;;;154.40;2252.80;;;;;;4970951;28;20023;-59
2022/02/07 14:06:11;;;;;;;3.90;1.70;;;154.40;2252.80;;;;;;4973870;28;20105;-58
2022/02/07 14:08:40;;;;;;;3.15;1.95;;;154.50;2252.80;;;;;;4974449;28;20027;-58
2022/02/07 14:11:11;;;;;;;4.32;2.40;;;179.30;2252.80;;;;;;4974419;28;20027;-57
2022/02/07 14:13:39;;;;;;;3.92;2.13;;;179.30;2252.80;;;;;;4974195;28;20034;-60
2022/02/07 14:16:07;;;;;;;4.82;2.40;;;179.30;2252.80;;;;;;4974199;28;20035;-60
2022/02/07 14:18:33;;;;;;;3.55;2.10;;;179.40;2252.80;;;;;;4974107;28;20502;-61
2022/02/07 14:21:09;;;;;;;5.03;2.75;;;179.40;2252.80;;;;;;4974224;28;20377;-60
2022/02/07 14:23:35;;;;;;;6.32;2.30;;;179.40;2252.80;;;;;;4974272;28;20101;-60
2022/02/07 14:26:03;;;;;;;5.70;2.92;;;179.50;2252.80;;;;;;4972742;28;20069;-58
2022/02/07 14:28:29;;;;;;;9.10;3.13;;;179.30;2252.80;;;;;;4972151;28;20113;-57
2022/02/07 14:30:57;;;;;;;4.20;2.70;;;179.40;2252.80;;;;;;4972697;28;20073;-57
2022/02/07 14:33:24;;;;;;;3.78;1.95;;;179.20;2252.80;;;;;;4972724;28;20437;-60
2022/02/07 14:35:49;;;;;;;4.63;2.65;;;179.30;2252.80;;;;;;4972557;28;20327;-62
2022/02/07 14:38:15;;;;;;;7.05;2.15;;;179.30;2252.80;;;;;;4972425;28;20485;-59
2022/02/07 14:40:42;;;;;;;4.20;1.90;;;179.20;2252.80;;;;;;4953746;28;20401;-60
2022/02/07 14:43:13;;;;;;;4.40;1.90;;;154.50;2252.80;;;;;;4972137;28;20030;-60
2022/02/07 14:45:52;;;;;;;3.75;2.50;;;154.50;2252.80;;;;;;4972359;28;20034;-62
2022/02/07 14:48:18;;;;;;;21.90;7.45;;;179.20;2252.80;;;;;;4972083;28;20069;-59
2022/02/07 14:50:44;;;;;;;16.70;9.77;;;179.40;2252.80;;;;;;4972422;28;20026;-59
2022/02/07 14:53:13;;;;;;;9.90;6.90;;;179.30;2252.80;;;;;;4971802;28;20027;-59
2022/02/07 14:55:39;;;;;;;11.73;10.45;;;179.30;2252.80;;;;;;4971978;28;20027;-58
2022/02/07 14:58:06;;;;;;;117.95;64.88;;;179.40;2252.80;;;;;;4971788;28;20499;-60
2022/02/07 15:00:32;;;;;;;23.00;13.63;;;179.30;2252.80;;;;;;4971725;28;20066;-58
2022/02/07 15:02:59;;;;;;;35.15;17.40;;;179.30;2252.80;;;;;;4971833;28;20034;-59
2022/02/07 15:05:27;;;;;;;43.80;35.90;;;179.30;2252.80;;;;;;4971714;28;20408;-59
2022/02/07 15:07:52;;;;;;;488.02;337.95;;;179.30;2252.80;;;;;;4972045;28;20046;-59
2022/02/07 15:10:18;;;;;;;229.80;142.23;;;179.20;2252.80;;;;;;4971648;28;20050;-59
2022/02/07 15:12:45;;;;;;;36.03;28.65;;;179.20;2252.80;;;;;;4971907;28;20465;-60
2022/02/07 15:15:11;;;;;;;10.63;7.88;;;179.20;2252.80;;;;;;4971794;28;20041;-59
2022/02/07 15:17:37;;;;;;;11.13;8.35;;;179.20;2252.80;;;;;;4963772;28;20023;-62
2022/02/07 15:20:06;;;;;;;8.23;5.38;;;179.20;2252.80;;;;;;4971204;28;20029;-62
2022/02/07 15:22:32;;;;;;;13.02;11.85;;;179.20;2252.80;;;;;;4971640;28;20042;-64
2022/02/07 15:25:00;;;;;;;6.05;3.85;;;179.20;2252.80;;;;;;4971350;28;20516;-63
2022/02/07 15:27:28;;;;;;;14.68;3.17;;;154.50;2252.80;;;;;;4971370;28;20143;-64
2022/02/07 15:29:55;;;;;;;6.47;2.85;;;154.50;2252.80;;;;;;4971295;28;20038;-62
2022/02/07 15:32:23;;;;;;;6.57;3.50;;;154.40;2252.80;;;;;;4971045;28;20033;-64
2022/02/07 15:34:53;;;;;;;4.72;2.92;;;154.40;2252.80;;;;;;4971168;28;20027;-63
2022/02/07 15:37:20;;;;;;;7.22;5.80;;;154.40;2252.80;;;;;;4971042;28;20046;-60
2022/02/07 15:39:46;;;;;;;6.45;2.88;;;154.50;2252.80;;;;;;4970700;28;20489;-63
2022/02/07 15:42:12;;;;;;;5.60;3.85;;;154.40;2252.80;;;;;;4971269;28;20491;-60
2022/02/07 15:44:38;;;;;;;5.25;3.20;;;154.40;2252.80;;;;;;4970360;28;20109;-58
2022/02/07 15:47:04;;;;;;;5.65;3.47;;;154.40;2252.80;;;;;;4971350;28;20118;-58
2022/02/07 15:49:31;;;;;;;6.97;4.78;;;154.50;2252.80;;;;;;4971367;28;20133;-61
2022/02/07 15:51:57;;;;;;;5.97;3.22;;;154.40;2252.80;;;;;;4970957;28;20484;-58
2022/02/07 15:54:24;;;;;;;7.82;4.35;;;154.50;2252.80;;;;;;4971085;28;20106;-58
2022/02/07 15:56:50;;;;;;;6.30;3.70;;;154.50;2252.80;;;;;;4971072;28;20023;-58
2022/02/07 15:59:16;;;;;;;9.02;4.95;;;154.50;2252.80;;;;;;4969932;28;20060;-59
2022/02/07 16:01:42;;;;;;;5.88;3.10;;;154.50;2252.80;;;;;;4970952;28;20031;-59
2022/02/07 16:04:07;;;;;;;6.30;3.83;;;154.50;2252.80;;;;;;4970606;28;20023;-58
2022/02/07 16:06:33;;;;;;;7.55;3.50;;;154.50;2252.80;;;;;;4970565;28;20027;-59
2022/02/07 16:08:59;;;;;;;5.57;3.22;;;154.50;2252.80;;;;;;4970290;28;20019;-62
2022/02/07 16:11:25;;;;;;;4.55;2.95;;;154.40;2252.80;;;;;;4969616;28;20049;-62
2022/02/07 16:13:55;;;;;;;5.80;3.20;;;154.50;2252.80;;;;;;4969873;28;20030;-58
2022/02/07 16:16:21;;;;;;;5.45;3.30;;;154.50;2252.80;;;;;;4976068;28;20030;-58
2022/02/07 16:18:47;;;;;;;4.60;2.63;;;154.40;2252.80;;;;;;4980300;28;20010;-61
2022/02/07 16:21:15;;;;;;;6.97;3.30;;;154.30;2252.80;;;;;;4971600;28;20069;-59
2022/02/07 16:23:42;;;;;;;5.95;2.90;;;154.40;2252.80;;;;;;4979060;28;20519;-59
2022/02/07 16:26:08;;;;;;;4.68;2.85;;;154.20;2252.80;;;;;;4979402;28;20034;-58
2022/02/07 16:28:34;;;;;;;6.57;3.75;;;154.20;2252.80;;;;;;4976875;28;20562;-59
2022/02/07 16:31:00;;;;;;;7.90;4.65;;;154.20;2252.80;;;;;;4979824;28;20538;-58
2022/02/07 16:33:27;;;;;;;8.85;4.80;;;154.20;2252.80;;;;;;4978140;28;20038;-57
2022/02/07 16:35:53;;;;;;;6.75;3.90;;;154.30;2252.80;;;;;;4973938;28;20027;-57
2022/02/07 16:38:19;;;;;;;4.90;2.80;;;154.20;2252.80;;;;;;4969214;28;20026;-58
2022/02/07 16:40:45;;;;;;;5.25;3.05;;;154.30;2252.80;;;;;;4969940;28;20046;-59
2022/02/07 16:43:13;;;;;;;7.07;3.67;;;154.30;2252.80;;;;;;4970369;28;20495;-58
2022/02/07 16:48:14;;;;;;;5.95;3.30;;;154.20;2252.80;;;;;;4970050;28;20420;-59
2022/02/07 16:50:40;;;;;;;7.97;4.28;;;154.20;2252.80;;;;;;4969926;28;20077;-58
2022/02/07 16:53:06;;;;;;;6.20;4.05;;;154.20;2252.80;;;;;;4969871;28;20035;-59
2022/02/07 16:55:32;;;;;;;10.63;4.50;;;154.10;2252.80;;;;;;4970169;28;20125;-59
2022/02/07 16:57:58;;;;;;;8.80;3.78;;;154.10;2252.80;;;;;;4969934;28;20122;-58